KP59

Copper Harbor Airport

Michigan, USA
METAR KP59 230451Z AUTO 01019G24KT 07/02 A3003 RMK AO1 SLP173 T00670022 401170000
Observed Flight Rules
Oct-23 @ 04:51 UTC (28 minutes ago)
Wind
10° at 19 knots
 Gusting to 24 knots
Temperatures Readings
Current 7°C / 45°F
Dewpoint 2°C / 36°F
Humidity 71%
Altimeter 30.03" Hg
Pressure 1017.3 hPa
Elevation 190
METAR KP59 230451Z AUTO 01019G24KT 07/02 A3003 RMK AO1 SLP173 T00670022 401170000
Observed Flight Rules
Oct-23 @ 04:51 UTC
(28 minutes ago)
Wind
10° at 19 knots
 Gusting to 24 knots
Temperature Dewpoint
7°C / 45°F 2°C / 36°F
Humidity Altimeter Pressure
71% 30.03" Hg 1017.3 hPa